Legnica Bartoszow, Poland

1:41 PM CEST on September 16, 2014 (GMT +0200)
Ziemnice Radosna 1 | Change Station
CLOSE
Current Station
Personal Weather Station
Location: Ziemnice, LEGNICA
Elevation: 446 ft
Nearby Weather Stations

Elev 446 ft 51.20 °N, 16.25 °E | Updated 1 minute ago

Clear
Clear
72.4 °F
Feels Like 76 °F
N
7.0
Wind Variable Wind from East
Gusts 12.0 mph

Today
High -- | Low -- °F
--% Chance of Precip.
Yesterday
High -- | Low -- °F
Precip. -- in
6:31 AM 7:07 PM
Last Quarter, 46% visible
Pressure 30.12 in
Visibility -9999.0 miles
Clouds
Heat Index 76 °F
Dew Point 60 °F
Humidity 64%
Rainfall 0.00 in
Snow Depth Not available.
UV 3.3 out of 12
Pollen Not available.
Air Quality Not available.
Flu Activity Not available.
METAR EPWR 161130Z 10009KT CAVOK 23/14 Q1020

More Conditions Fewer Conditions

Pressure 30.12 in
Visibility -9999.0 miles
Clouds
Heat Index 76 °F
Dew Point 60 °F
Humidity 64%
Rainfall 0.00 in
Snow Depth Not available.
UV 3.3 out of 12
Pollen Not available.
Air Quality Not available.
Flu Activity Not available.
METAR EPWR 161130Z 10009KT CAVOK 23/14 Q1020

More Conditions Fewer Conditions

10-Day Weather Forecast

Almanac

Astronomy

Sep. 16, 2014 Rise Set
Actual Time 6:31 AM CEST 7:07 PM CEST
Civil Twilight 5:58 AM CEST 7:40 PM CEST
Nautical Twilight 5:18 AM CEST 8:20 PM CEST
Astronomical Twilight 4:36 AM CEST 9:02 PM CEST
Moon 11:49 PM CEST 2:46 PM CEST
Length of Visible Light 13h 42m
Length of Day
12h 36m
Tomorrow will be 3m 52s shorter.
Last Quarter, 46% of the Moon is Illuminated
Today
Last Quarter
Sep 24
New
Oct 1
First Quarter
Oct 8
Full
Oct 15
Last Quarter

Yesterday's Extremes

Country Highs Country Lows

Community

WunderPhotos

Upload Photos

1,753,724 photos uploaded!

WunderBlogs® & News

By Dr. Jeff Masters
Director of Meteorology, Weather Underground
By Kari Strenfel
Meteorologist, Weather Underground
By Christopher C. Burt
Weather Historian, Weather Underground
September 16, 2014
September 16, 2014
September 16, 2014

Nearby

Snow Depth

Not available.

Earthquake Activity

City Distance Mag. Time & Date
No recent earthquake activity has been reported nearby.
Minimum magnitude displayed is 2.5.

Coastal Water Temperatures

Place Temperature
No Stations Reporting

Nearby Weather Stations